createdAt,value
2023-11-24T00:02:16.233Z,46.45
2023-11-24T00:04:45.133Z,46.42
2023-11-24T00:07:13.557Z,46.80
2023-11-24T00:09:40.713Z,45.20
2023-11-24T00:12:08.147Z,46.70
2023-11-24T00:14:35.089Z,46.15
2023-11-24T00:17:02.143Z,45.80
2023-11-24T00:19:29.049Z,45.45
2023-11-24T00:21:55.855Z,46.33
2023-11-24T00:24:24.574Z,44.90
2023-11-24T00:26:52.732Z,44.92
2023-11-24T00:29:20.440Z,45.33
2023-11-24T00:31:47.255Z,45.45
2023-11-24T00:34:14.279Z,44.47
2023-11-24T00:36:41.159Z,45.95
2023-11-24T00:39:08.231Z,45.70
2023-11-24T00:41:36.502Z,45.53
2023-11-24T00:44:04.325Z,43.45
2023-11-24T00:46:31.146Z,44.40
2023-11-24T00:48:58.470Z,44.42
2023-11-24T00:51:26.524Z,45.42
2023-11-24T00:53:53.672Z,44.15
2023-11-24T00:56:20.577Z,45.38
2023-11-24T00:58:49.815Z,45.28
2023-11-24T01:01:16.730Z,44.78
2023-11-24T01:03:43.629Z,44.97
2023-11-24T01:06:10.475Z,47.95
2023-11-24T01:08:37.271Z,45.40
2023-11-24T01:11:04.156Z,44.35
2023-11-24T01:13:33.947Z,46.35
2023-11-24T01:16:03.861Z,45.15
2023-11-24T01:18:31.095Z,44.47
2023-11-24T01:20:58.003Z,43.75
2023-11-24T01:23:24.813Z,44.80
2023-11-24T01:25:54.646Z,44.78
2023-11-24T01:28:21.738Z,43.47
2023-11-24T01:30:48.771Z,44.60
2023-11-24T01:33:17.443Z,44.45
2023-11-24T01:35:44.618Z,44.05
2023-11-24T01:38:12.264Z,44.28
2023-11-24T01:40:39.550Z,45.45
2023-11-24T01:43:07.185Z,45.85
2023-11-24T01:45:34.398Z,44.90
2023-11-24T01:48:01.191Z,45.05
2023-11-24T01:50:29.567Z,44.78
2023-11-24T01:52:56.936Z,45.10
2023-11-24T01:55:24.663Z,45.85
2023-11-24T01:57:54.091Z,44.95
2023-11-24T02:00:21.215Z,44.50
2023-11-24T02:02:48.085Z,45.00
2023-11-24T02:05:15.865Z,44.55
2023-11-24T02:07:44.589Z,45.38
2023-11-24T02:10:12.879Z,44.30
2023-11-24T02:12:39.918Z,45.75
2023-11-24T02:15:08.714Z,44.33
2023-11-24T02:17:36.735Z,43.80
2023-11-24T02:20:07.362Z,45.08
2023-11-24T02:22:39.264Z,44.75
2023-11-24T02:25:07.186Z,45.72
2023-11-24T02:27:34.005Z,45.25
2023-11-24T02:30:00.838Z,44.88
2023-11-24T02:32:27.591Z,44.95
2023-11-24T02:34:54.735Z,44.22
2023-11-24T02:37:22.119Z,45.13
2023-11-24T02:39:50.557Z,45.72
2023-11-24T02:42:17.526Z,44.60
2023-11-24T02:44:44.570Z,44.08
2023-11-24T02:47:11.770Z,44.35
2023-11-24T02:49:39.854Z,43.95
2023-11-24T02:52:07.041Z,45.38
2023-11-24T02:54:33.901Z,44.25
2023-11-24T02:57:04.575Z,45.17
2023-11-24T02:59:31.630Z,44.83
2023-11-24T03:01:58.629Z,44.80
2023-11-24T03:04:26.740Z,45.42
2023-11-24T03:06:54.058Z,45.67
2023-11-24T03:09:25.414Z,45.05
2023-11-24T03:11:54.022Z,44.75
2023-11-24T03:14:22.487Z,45.58
2023-11-24T03:16:49.503Z,45.05
2023-11-24T03:19:17.753Z,45.63
2023-11-24T03:21:45.231Z,45.78
2023-11-24T03:24:13.007Z,45.78
2023-11-24T03:26:39.881Z,46.20
2023-11-24T03:29:06.750Z,45.05
2023-11-24T03:31:35.118Z,45.28
2023-11-24T03:34:02.583Z,44.65
2023-11-24T03:36:29.584Z,45.20
2023-11-24T03:38:56.421Z,45.00
2023-11-24T03:41:23.569Z,46.47
2023-11-24T03:43:50.631Z,45.33
2023-11-24T03:46:17.735Z,45.60
2023-11-24T03:48:46.054Z,44.88
2023-11-24T03:51:12.935Z,45.03
2023-11-24T03:53:39.761Z,44.58
2023-11-24T03:56:08.225Z,44.13
2023-11-24T03:58:35.193Z,43.97
2023-11-24T04:01:02.742Z,44.85
2023-11-24T04:03:30.226Z,44.53
2023-11-24T04:05:58.627Z,43.97
2023-11-24T04:08:25.455Z,44.33
2023-11-24T04:10:52.342Z,44.47
2023-11-24T04:13:19.155Z,44.28
2023-11-24T04:15:46.043Z,44.35
2023-11-24T04:18:13.599Z,44.38
2023-11-24T04:20:40.584Z,44.97
2023-11-24T04:23:10.064Z,44.28
2023-11-24T04:25:37.561Z,44.67
2023-11-24T04:28:04.735Z,44.22
2023-11-24T04:30:31.610Z,44.35
2023-11-24T04:32:58.508Z,44.20
2023-11-24T04:35:25.572Z,44.55
2023-11-24T04:37:52.324Z,44.42
2023-11-24T04:40:20.737Z,44.55
2023-11-24T04:42:47.652Z,44.10
2023-11-24T04:45:15.147Z,44.22
2023-11-24T04:47:41.957Z,44.97
2023-11-24T04:50:09.522Z,44.10
2023-11-24T04:52:36.587Z,45.80
2023-11-24T04:55:05.052Z,45.47
2023-11-24T04:57:34.460Z,44.53
2023-11-24T05:00:01.826Z,43.92
2023-11-24T05:02:28.855Z,45.55
2023-11-24T05:04:56.532Z,44.45
2023-11-24T05:07:24.755Z,44.10
2023-11-24T05:09:51.846Z,44.28
2023-11-24T05:12:18.924Z,44.67
2023-11-24T05:14:47.832Z,44.42
2023-11-24T05:17:14.676Z,45.40
2023-11-24T05:19:41.880Z,44.55
2023-11-24T05:22:08.836Z,44.40
2023-11-24T05:24:35.949Z,44.92
2023-11-24T05:27:02.902Z,45.38
2023-11-24T05:29:30.580Z,44.72
2023-11-24T05:31:58.846Z,45.67
2023-11-24T05:34:26.825Z,44.83
2023-11-24T05:36:53.750Z,45.00
2023-11-24T05:39:20.576Z,44.38
2023-11-24T05:41:47.458Z,45.38
2023-11-24T05:44:16.785Z,44.70
2023-11-24T05:46:43.632Z,44.38
2023-11-24T05:49:11.976Z,45.60
2023-11-24T05:51:38.872Z,44.38
2023-11-24T05:54:07.165Z,44.63
2023-11-24T05:56:33.974Z,44.75
2023-11-24T05:59:00.786Z,44.92
2023-11-24T06:01:27.953Z,45.05
2023-11-24T06:03:54.879Z,44.55
2023-11-24T06:06:23.146Z,45.65
2023-11-24T06:08:49.969Z,45.75
2023-11-24T06:11:19.433Z,44.65
2023-11-24T06:13:47.477Z,45.75
2023-11-24T06:16:14.370Z,46.28
2023-11-24T06:18:41.275Z,45.05
2023-11-24T06:21:13.060Z,45.13
2023-11-24T06:23:41.409Z,46.10
2023-11-24T06:26:09.759Z,46.35
2023-11-24T06:28:36.886Z,46.10
2023-11-24T06:31:04.456Z,45.63
2023-11-24T06:33:31.414Z,44.70
2023-11-24T06:35:59.907Z,45.47
2023-11-24T06:38:26.902Z,46.20
2023-11-24T06:40:55.011Z,44.83
2023-11-24T06:43:22.568Z,45.45
2023-11-24T06:45:49.365Z,44.25
2023-11-24T06:48:16.335Z,44.78
2023-11-24T06:50:43.848Z,44.42
2023-11-24T06:53:10.786Z,45.15
2023-11-24T06:55:38.409Z,45.05
2023-11-24T06:58:08.585Z,44.65
2023-11-24T07:00:36.243Z,45.75
2023-11-24T07:03:03.346Z,44.97
2023-11-24T07:05:30.268Z,44.08
2023-11-24T07:07:57.080Z,44.53
2023-11-24T07:10:24.095Z,44.58
2023-11-24T07:12:50.987Z,44.45
2023-11-24T07:15:19.442Z,44.67
2023-11-24T07:17:46.481Z,44.92
2023-11-24T07:20:13.479Z,44.25
2023-11-24T07:22:41.238Z,44.20
2023-11-24T07:25:09.505Z,44.80
2023-11-24T07:27:36.293Z,44.08
2023-11-24T07:30:03.457Z,44.38
2023-11-24T07:32:31.636Z,44.72
2023-11-24T07:34:58.581Z,44.63
2023-11-24T07:37:27.856Z,43.55
2023-11-24T07:39:54.923Z,43.28
2023-11-24T07:42:24.494Z,43.58
2023-11-24T07:44:51.353Z,43.97
2023-11-24T07:47:20.034Z,44.03
2023-11-24T07:49:48.294Z,43.40
2023-11-24T07:52:15.216Z,43.40
2023-11-24T07:54:42.173Z,43.80
2023-11-24T07:57:09.228Z,43.40
2023-11-24T07:59:36.744Z,43.65
2023-11-24T08:02:04.076Z,43.30
2023-11-24T08:04:31.132Z,43.95
2023-11-24T08:06:59.506Z,44.28
2023-11-24T08:09:26.829Z,43.55
2023-11-24T08:11:53.750Z,44.33
2023-11-24T08:14:24.891Z,43.65
2023-11-24T08:16:52.521Z,45.05
2023-11-24T08:19:23.761Z,44.83
2023-11-24T08:21:50.704Z,43.60
2023-11-24T08:24:19.106Z,43.70
2023-11-24T08:26:46.072Z,44.28
2023-11-24T08:29:13.471Z,43.75
2023-11-24T08:31:45.557Z,44.13
2023-11-24T08:34:14.292Z,44.13
2023-11-24T08:36:41.729Z,45.30
2023-11-24T08:39:14.336Z,44.00
2023-11-24T08:41:46.312Z,44.72
2023-11-24T08:44:13.394Z,44.90
2023-11-24T08:46:40.764Z,45.75
2023-11-24T08:49:10.056Z,44.95
2023-11-24T08:51:37.087Z,44.92
2023-11-24T08:54:08.274Z,45.22
2023-11-24T08:56:35.305Z,45.60
2023-11-24T08:59:09.759Z,45.15
2023-11-24T09:01:37.914Z,45.55
2023-11-24T09:04:05.409Z,45.78
2023-11-24T09:06:32.919Z,45.58
2023-11-24T09:08:59.875Z,45.55
2023-11-24T09:11:27.856Z,45.13
2023-11-24T09:13:55.481Z,46.15
2023-11-24T09:16:23.810Z,46.25
2023-11-24T09:18:50.693Z,46.25
2023-11-24T09:21:18.965Z,46.17
2023-11-24T09:23:46.493Z,46.40
2023-11-24T09:26:13.859Z,45.58
2023-11-24T09:28:40.892Z,45.33
2023-11-24T09:31:14.158Z,46.20
2023-11-24T09:33:42.747Z,45.70
2023-11-24T09:36:10.519Z,46.42
2023-11-24T09:38:37.962Z,46.42
2023-11-24T09:41:09.454Z,45.70
2023-11-24T09:43:37.359Z,46.17
2023-11-24T09:46:04.882Z,46.17
2023-11-24T09:48:33.775Z,45.83
2023-11-24T09:51:05.021Z,45.83
2023-11-24T09:53:34.841Z,46.08
2023-11-24T09:56:02.046Z,45.83
2023-11-24T09:58:28.855Z,45.33
2023-11-24T10:00:59.765Z,46.05
2023-11-24T10:03:28.914Z,45.85
2023-11-24T10:05:55.731Z,46.08
2023-11-24T10:08:25.371Z,45.95
2023-11-24T10:10:52.135Z,46.30
2023-11-24T10:13:18.900Z,45.88
2023-11-24T10:15:52.007Z,45.88
2023-11-24T10:18:19.793Z,45.72
2023-11-24T10:20:46.519Z,45.25
2023-11-24T10:23:13.985Z,44.80
2023-11-24T10:25:42.146Z,45.05
2023-11-24T10:28:09.706Z,45.00
2023-11-24T10:30:38.035Z,45.03
2023-11-24T10:33:06.253Z,45.90
2023-11-24T10:35:33.498Z,46.22
2023-11-24T10:38:01.994Z,45.75
2023-11-24T10:40:29.933Z,44.95
2023-11-24T10:42:58.743Z,45.05
2023-11-24T10:45:31.522Z,45.53
2023-11-24T10:48:07.526Z,44.80
2023-11-24T10:50:39.564Z,44.28
2023-11-24T10:53:11.547Z,45.13
2023-11-24T10:55:39.513Z,44.03
2023-11-24T10:58:10.451Z,44.92
2023-11-24T11:00:38.706Z,44.20
2023-11-24T11:03:08.766Z,44.53
2023-11-24T11:05:47.201Z,44.28
2023-11-24T11:08:21.759Z,44.13
2023-11-24T11:11:16.450Z,44.15
2023-11-24T11:13:45.817Z,45.13
2023-11-24T11:16:15.929Z,44.88
2023-11-24T11:18:42.994Z,44.00
2023-11-24T11:21:11.534Z,44.50
2023-11-24T11:23:41.020Z,44.22
2023-11-24T11:26:09.093Z,44.53
2023-11-24T11:28:38.004Z,44.05
2023-11-24T11:31:35.338Z,43.85
2023-11-24T11:34:17.993Z,44.33
2023-11-24T11:36:50.458Z,44.50
2023-11-24T11:39:20.938Z,44.08
2023-11-24T11:41:52.042Z,43.97
2023-11-24T11:44:21.785Z,43.95
2023-11-24T11:47:21.875Z,43.95
2023-11-24T11:49:52.821Z,44.42
2023-11-24T11:52:23.777Z,44.08
2023-11-24T11:54:52.810Z,43.92
2023-11-24T11:57:21.901Z,45.10
2023-11-24T11:59:49.834Z,45.40
2023-11-24T12:02:22.822Z,45.65
2023-11-24T12:04:50.742Z,44.15
2023-11-24T12:07:20.336Z,44.22
2023-11-24T12:09:48.657Z,44.22
2023-11-24T12:12:15.780Z,43.63
2023-11-24T12:14:43.673Z,44.30
2023-11-24T12:17:11.732Z,44.85
2023-11-24T12:19:41.828Z,44.17
2023-11-24T12:22:11.560Z,43.65
2023-11-24T12:24:42.556Z,44.92
2023-11-24T12:27:10.771Z,32.70
2023-11-24T12:29:42.462Z,44.50
2023-11-24T12:32:11.236Z,44.35
2023-11-24T12:34:43.708Z,43.55
2023-11-24T12:37:11.285Z,44.72
2023-11-24T12:39:40.741Z,44.00
2023-11-24T12:42:08.188Z,43.55
2023-11-24T12:44:39.809Z,43.25
2023-11-24T12:50:00.753Z,43.75
2023-11-24T12:52:29.116Z,43.30
2023-11-24T12:54:57.025Z,43.65
2023-11-24T12:57:25.278Z,43.85
2023-11-24T12:59:52.575Z,44.10
2023-11-24T13:02:21.179Z,43.85
2023-11-24T13:04:49.582Z,44.63
2023-11-24T13:07:18.370Z,44.03
2023-11-24T13:09:45.657Z,44.60
2023-11-24T13:12:18.193Z,43.22
2023-11-24T13:14:46.695Z,44.13
2023-11-24T13:17:13.703Z,43.63
2023-11-24T13:19:40.724Z,43.90
2023-11-24T13:22:11.257Z,43.28
2023-11-24T13:24:39.771Z,42.97
2023-11-24T13:27:06.863Z,42.45
2023-11-24T13:29:34.028Z,44.00
2023-11-24T13:32:01.830Z,42.97
2023-11-24T13:34:29.478Z,43.13
2023-11-24T13:36:59.073Z,42.35
2023-11-24T13:39:30.110Z,43.80
2023-11-24T13:42:00.114Z,43.23
2023-11-24T13:44:27.094Z,44.13
2023-11-24T13:47:00.361Z,42.95
2023-11-24T13:49:27.319Z,42.97
2023-11-24T13:51:54.336Z,43.83
2023-11-24T13:54:24.467Z,43.60
2023-11-24T13:56:53.638Z,43.42
2023-11-24T13:59:22.386Z,43.63
2023-11-24T14:01:50.593Z,42.88
2023-11-24T14:04:17.897Z,43.30
2023-11-24T14:06:45.767Z,43.42
2023-11-24T14:09:20.716Z,44.00
2023-11-24T14:11:48.792Z,43.25
2023-11-24T14:14:16.473Z,42.47
2023-11-24T14:16:45.299Z,43.60
2023-11-24T14:19:12.565Z,43.53
2023-11-24T14:21:40.444Z,43.40
2023-11-24T14:24:08.449Z,42.75
2023-11-24T14:26:35.923Z,44.40
2023-11-24T14:29:05.461Z,43.67
2023-11-24T14:31:33.198Z,42.97
2023-11-24T14:34:02.672Z,42.67
2023-11-24T14:36:29.793Z,42.85
2023-11-24T14:38:57.763Z,43.15
2023-11-24T14:41:25.038Z,42.95
2023-11-24T14:43:52.307Z,42.45
2023-11-24T14:46:22.632Z,42.65
2023-11-24T14:48:50.538Z,42.65
2023-11-24T14:51:19.312Z,42.50
2023-11-24T14:53:46.251Z,42.65
2023-11-24T14:56:16.929Z,43.22
2023-11-24T14:58:44.744Z,42.28
2023-11-24T15:01:11.862Z,43.80
2023-11-24T15:03:40.911Z,43.05
2023-11-24T15:06:12.312Z,42.63
2023-11-24T15:08:54.969Z,42.75
2023-11-24T15:11:22.953Z,44.70
2023-11-24T15:13:54.249Z,44.03
2023-11-24T15:16:29.637Z,44.33
2023-11-24T15:18:57.160Z,43.88
2023-11-24T15:21:31.383Z,44.08
2023-11-24T15:24:00.001Z,44.00
2023-11-24T15:26:27.209Z,43.50
2023-11-24T15:28:57.736Z,43.35
2023-11-24T15:31:28.387Z,43.90
2023-11-24T15:33:55.960Z,43.00
2023-11-24T15:36:29.417Z,42.88
2023-11-24T15:38:57.743Z,43.05
2023-11-24T15:41:30.604Z,43.13
2023-11-24T15:43:57.685Z,42.72
2023-11-24T15:46:30.956Z,42.65
2023-11-24T15:48:58.785Z,43.72
2023-11-24T15:51:27.136Z,42.90
2023-11-24T15:53:54.505Z,43.85
2023-11-24T15:56:28.211Z,44.13
2023-11-24T15:58:57.580Z,44.30
2023-11-24T16:01:24.467Z,43.97
2023-11-24T16:03:51.540Z,43.50
2023-11-24T16:06:21.684Z,43.25
2023-11-24T16:08:55.606Z,42.97
2023-11-24T16:11:29.689Z,43.15
2023-11-24T16:13:57.954Z,43.30
2023-11-24T16:16:26.750Z,43.80
2023-11-24T16:18:53.688Z,42.58
2023-11-24T16:21:20.873Z,43.65
2023-11-24T16:23:47.976Z,43.70
2023-11-24T16:26:14.909Z,43.47
2023-11-24T16:28:43.418Z,43.10
2023-11-24T16:31:13.411Z,43.08
2023-11-24T16:33:42.021Z,42.05
2023-11-24T16:36:10.914Z,42.95
2023-11-24T16:38:40.752Z,42.35
2023-11-24T16:41:09.583Z,52.00
2023-11-24T16:43:36.398Z,42.83
2023-11-24T16:46:07.031Z,42.40
2023-11-24T16:48:35.526Z,43.60
2023-11-24T16:51:03.770Z,42.00
2023-11-24T16:53:30.539Z,42.20
2023-11-24T16:55:57.489Z,43.28
2023-11-24T16:58:24.358Z,42.60
2023-11-24T17:00:51.136Z,42.28
2023-11-24T17:03:18.105Z,43.15
2023-11-24T17:05:47.361Z,42.50
2023-11-24T17:08:14.254Z,43.95
2023-11-24T17:10:41.058Z,42.92
2023-11-24T17:13:09.123Z,43.67
2023-11-24T17:15:35.950Z,42.72
2023-11-24T17:18:05.215Z,43.25
2023-11-24T17:20:32.082Z,43.08
2023-11-24T17:23:00.478Z,43.45
2023-11-24T17:25:35.241Z,43.67
2023-11-24T17:28:04.584Z,43.22
2023-11-24T17:30:31.475Z,42.47
2023-11-24T17:32:58.406Z,42.83
2023-11-24T17:35:25.709Z,43.10
2023-11-24T17:37:53.777Z,43.90
2023-11-24T17:40:23.375Z,41.85
2023-11-24T17:42:50.484Z,42.45
2023-11-24T17:45:17.520Z,43.58
2023-11-24T17:47:47.001Z,41.90
2023-11-24T17:50:20.451Z,41.50
2023-11-24T17:52:49.290Z,42.22
2023-11-24T17:55:16.303Z,42.13
2023-11-24T17:57:44.763Z,42.67
2023-11-24T18:00:14.620Z,42.05
2023-11-24T18:02:41.666Z,43.25
2023-11-24T18:05:08.633Z,41.70
2023-11-24T18:07:35.633Z,42.92
2023-11-24T18:10:03.953Z,42.38
2023-11-24T18:12:31.665Z,42.10
2023-11-24T18:15:01.476Z,42.83
2023-11-24T18:17:28.299Z,42.08
2023-11-24T18:19:56.126Z,42.55
2023-11-24T18:22:23.295Z,42.72
2023-11-24T18:24:50.193Z,42.28
2023-11-24T18:27:17.449Z,41.88
2023-11-24T18:29:44.250Z,42.50
2023-11-24T18:32:12.860Z,41.42
2023-11-24T18:34:40.104Z,41.60
2023-11-24T18:37:07.167Z,42.22
2023-11-24T18:39:34.078Z,43.25
2023-11-24T18:42:00.894Z,41.38
2023-11-24T18:44:27.755Z,41.90
2023-11-24T18:46:54.569Z,41.83
2023-11-24T18:49:22.869Z,41.65
2023-11-24T18:51:49.713Z,41.67
2023-11-24T18:54:16.565Z,41.70
2023-11-24T18:56:43.301Z,41.75
2023-11-24T18:59:11.609Z,42.58
2023-11-24T19:01:38.622Z,42.10
2023-11-24T19:04:05.750Z,42.53
2023-11-24T19:06:34.122Z,41.83
2023-11-24T19:09:01.078Z,43.35
2023-11-24T19:11:27.903Z,43.78
2023-11-24T19:13:54.725Z,42.58
2023-11-24T19:16:21.624Z,42.28
2023-11-24T19:18:48.657Z,42.95
2023-11-24T19:21:15.541Z,42.80
2023-11-24T19:23:43.812Z,41.45
2023-11-24T19:26:13.229Z,41.80
2023-11-24T19:28:41.752Z,41.72
2023-11-24T19:31:08.873Z,41.35
2023-11-24T19:33:36.065Z,42.22
2023-11-24T19:36:05.096Z,42.70
2023-11-24T19:38:32.060Z,41.60
2023-11-24T19:41:00.317Z,41.60
2023-11-24T19:43:27.220Z,42.75
2023-11-24T19:45:54.271Z,41.55
2023-11-24T19:48:22.932Z,41.38
2023-11-24T19:50:50.130Z,41.25
2023-11-24T19:53:16.917Z,42.15
2023-11-24T19:55:43.706Z,41.95
2023-11-24T19:58:11.953Z,41.40
2023-11-24T20:00:38.844Z,42.40
2023-11-24T20:03:05.795Z,42.85
2023-11-24T20:05:32.674Z,41.58
2023-11-24T20:07:59.442Z,41.30
2023-11-24T20:10:26.634Z,41.33
2023-11-24T20:12:56.945Z,42.00
2023-11-24T20:15:25.360Z,41.92
2023-11-24T20:17:52.278Z,44.15
2023-11-24T20:20:19.176Z,43.05
2023-11-24T20:22:46.560Z,42.40
2023-11-24T20:25:13.408Z,42.25
2023-11-24T20:27:40.255Z,41.95
2023-11-24T20:30:12.931Z,42.22
2023-11-24T20:32:41.222Z,41.25
2023-11-24T20:35:09.146Z,41.92
2023-11-24T20:37:36.044Z,42.53
2023-11-24T20:40:04.517Z,41.55
2023-11-24T20:42:31.554Z,42.38
2023-11-24T20:44:58.343Z,41.15
2023-11-24T20:47:25.158Z,42.38
2023-11-24T20:49:53.383Z,42.00
2023-11-24T20:52:21.477Z,42.17
2023-11-24T20:54:48.352Z,42.97
2023-11-24T20:57:15.209Z,41.75
2023-11-24T20:59:41.998Z,42.97
2023-11-24T21:02:09.210Z,43.03
2023-11-24T21:04:36.303Z,42.25
2023-11-24T21:07:06.016Z,41.95
2023-11-24T21:09:33.048Z,42.58
2023-11-24T21:11:59.858Z,43.08
2023-11-24T21:14:27.530Z,42.05
2023-11-24T21:16:54.434Z,41.67
2023-11-24T21:19:21.300Z,42.40
2023-11-24T21:21:48.135Z,41.92
2023-11-24T21:24:16.391Z,41.65
2023-11-24T21:26:43.270Z,41.67
2023-11-24T21:29:10.206Z,42.50
2023-11-24T21:31:37.122Z,42.35
2023-11-24T21:34:04.140Z,42.55
2023-11-24T21:36:31.877Z,43.08
2023-11-24T21:38:58.716Z,43.00
2023-11-24T21:41:27.264Z,42.38
2023-11-24T21:43:54.080Z,42.05
2023-11-24T21:46:21.457Z,42.05
2023-11-24T21:48:48.353Z,41.70
2023-11-24T21:51:17.824Z,41.70
2023-11-24T21:53:44.774Z,41.42
2023-11-24T21:56:12.940Z,42.65
2023-11-24T21:58:41.217Z,41.25
2023-11-24T22:01:08.189Z,41.70
2023-11-24T22:03:35.114Z,42.35
2023-11-24T22:06:02.036Z,42.20
2023-11-24T22:08:28.940Z,41.70
2023-11-24T22:10:55.864Z,41.85
2023-11-24T22:13:22.832Z,42.35
2023-11-24T22:15:51.100Z,41.92
2023-11-24T22:18:18.799Z,41.72
2023-11-24T22:20:45.729Z,43.00
2023-11-24T22:23:13.672Z,43.22
2023-11-24T22:25:40.527Z,42.10
2023-11-24T22:28:07.457Z,41.80
2023-11-24T22:30:34.353Z,42.15
2023-11-24T22:33:03.294Z,43.33
2023-11-24T22:35:30.173Z,41.90
2023-11-24T22:37:57.008Z,41.75
2023-11-24T22:40:24.018Z,41.80
2023-11-24T22:42:52.316Z,42.25
2023-11-24T22:45:20.126Z,41.55
2023-11-24T22:47:47.624Z,42.85
2023-11-24T22:50:17.785Z,42.20
2023-11-24T22:52:45.708Z,42.42
2023-11-24T22:55:12.672Z,41.67
2023-11-24T22:57:40.938Z,43.42
2023-11-24T23:00:13.918Z,41.70
2023-11-24T23:02:40.994Z,41.58
2023-11-24T23:05:09.327Z,41.92
2023-11-24T23:07:37.798Z,42.75
2023-11-24T23:10:06.489Z,42.00
2023-11-24T23:12:33.327Z,43.38
2023-11-24T23:15:00.745Z,42.88
2023-11-24T23:17:27.652Z,43.45
2023-11-24T23:19:54.513Z,42.67
2023-11-24T23:22:31.127Z,42.67
2023-11-24T23:27:35.948Z,41.45
2023-11-24T23:30:02.876Z,42.58
2023-11-24T23:32:29.678Z,42.78
2023-11-24T23:34:56.769Z,41.75
2023-11-24T23:37:23.615Z,40.95
2023-11-24T23:39:51.166Z,42.78
2023-11-24T23:42:19.419Z,42.60
2023-11-24T23:44:46.189Z,41.10
2023-11-24T23:47:13.056Z,41.78
2023-11-24T23:49:40.348Z,41.13
2023-11-24T23:52:07.405Z,41.05
2023-11-24T23:54:34.252Z,41.60
2023-11-24T23:57:01.042Z,42.58
2023-11-24T23:59:29.710Z,43.15
